FZNA

Goma International Airport

Goma, Congo, Democratic Republic of
METAR FZNA 161400Z VRB03KT 9999 SCT016 FEW018CB BKN300 22/17 Q1018 RERA NOSIG
Observed Flight Rules
Dec-16 @ 14:00 UTC (10 hours ago) Visual Flight Rules
Wind Visibility Clouds
Variable at 3 knots 10,000+ meters
  • Scattered at 1,600' AGL
  • Few at 1,800' AGL
  • Broken at 30,000' AGL
Temperatures Readings
Current 22°C / 72°F
Dewpoint 17°C / 63°F
Humidity 73%
Altimeter 30.06" Hg
Pressure 1018 hPa
Elevation 1552
METAR FZNA 161400Z VRB03KT 9999 SCT016 FEW018CB BKN300 22/17 Q1018 RERA NOSIG
Observed Flight Rules
Dec-16 @ 14:00 UTC
(10 hours ago)
VFR
Wind Visibility
Variable at 3 knots 10,000+ meters
Clouds
  • Scattered at 1,600' AGL
  • Few at 1,800' AGL
  • Broken at 30,000' AGL
Temperature Dewpoint
22°C / 72°F 17°C / 63°F
Humidity Altimeter Pressure
73% 30.06" Hg 1018 hPa